Time;durP1;ratioP1;P1;durP2;ratioP2;P2;SDS_P1;SDS_P2;PMS_P1;PMS_P2;Temp;Humidity;BMP_temperature;BMP_pressure;BME280_temperature;BME280_humidity;BME280_pressure;Samples;Min_cycle;Max_cycle;Signal;HPM_P1;HPM_P2
2021/04/07 00:02:14;;;;;;;4.95;4.45;;;0.00;99.90;;;;;;5032447;28;20026;-70
2021/04/07 00:04:40;;;;;;;5.15;4.55;;;0.00;99.90;;;;;;5032246;28;20033;-73
2021/04/07 00:07:05;;;;;;;5.85;5.00;;;0.10;99.90;;;;;;5032485;28;20025;-72
2021/04/07 00:09:31;;;;;;;5.90;5.30;;;0.10;99.90;;;;;;5031906;28;20025;-72
2021/04/07 00:11:57;;;;;;;5.57;5.07;;;0.00;99.90;;;;;;5032302;28;20021;-72
2021/04/07 00:14:23;;;;;;;7.93;5.47;;;0.00;99.90;;;;;;5032531;28;20030;-72
2021/04/07 00:16:49;;;;;;;6.60;5.30;;;0.00;99.90;;;;;;5032731;28;20047;-71
2021/04/07 00:19:16;;;;;;;5.60;4.90;;;0.10;99.90;;;;;;5014489;28;20042;-71
2021/04/07 00:21:41;;;;;;;6.07;5.20;;;0.00;99.90;;;;;;5032074;28;20032;-71
2021/04/07 00:24:07;;;;;;;6.13;5.18;;;0.00;99.90;;;;;;5031922;28;20017;-70
2021/04/07 00:26:36;;;;;;;5.50;5.00;;;0.00;99.90;;;;;;5014360;28;20029;-72
2021/04/07 00:29:02;;;;;;;6.05;5.47;;;0.00;99.90;;;;;;5032193;28;20511;-71
2021/04/07 00:31:28;;;;;;;6.32;5.72;;;-0.10;99.90;;;;;;5014300;28;20032;-72
2021/04/07 00:33:53;;;;;;;8.30;5.63;;;-0.10;99.90;;;;;;5031715;28;20487;-71
2021/04/07 00:36:19;;;;;;;5.75;5.25;;;0.00;99.90;;;;;;5032047;28;20033;-72
2021/04/07 00:38:45;;;;;;;6.18;5.05;;;-0.10;99.90;;;;;;5031865;28;20121;-73
2021/04/07 00:41:11;;;;;;;6.50;5.90;;;-0.10;99.90;;;;;;5031955;28;20459;-73
2021/04/07 00:43:36;;;;;;;5.72;5.22;;;-0.10;99.90;;;;;;5031549;28;20009;-72
2021/04/07 00:46:02;;;;;;;6.55;5.65;;;0.00;99.90;;;;;;5031944;28;20100;-72
2021/04/07 00:48:27;;;;;;;6.32;5.50;;;0.00;99.90;;;;;;5031760;28;20025;-71
2021/04/07 00:50:53;;;;;;;6.40;5.50;;;0.00;99.90;;;;;;5013999;28;20025;-73
2021/04/07 00:53:19;;;;;;;6.20;5.60;;;0.00;99.90;;;;;;5031653;28;20072;-73
2021/04/07 00:55:45;;;;;;;6.03;5.43;;;0.00;99.90;;;;;;5031490;28;20427;-72
2021/04/07 00:58:11;;;;;;;7.38;6.10;;;-0.10;99.90;;;;;;5013958;28;20022;-72
2021/04/07 01:00:38;;;;;;;7.10;5.40;;;-0.10;99.90;;;;;;5013979;28;20030;-72
2021/04/07 01:03:05;;;;;;;7.43;5.78;;;-0.10;99.90;;;;;;5013929;28;20026;-72
2021/04/07 01:05:30;;;;;;;7.00;5.72;;;-0.10;99.90;;;;;;5013717;28;20603;-72
2021/04/07 01:07:57;;;;;;;6.80;5.97;;;-0.10;99.90;;;;;;5031513;28;20057;-70
2021/04/07 01:10:23;;;;;;;6.40;5.75;;;0.00;99.90;;;;;;5031721;28;20084;-73
2021/04/07 01:12:49;;;;;;;7.82;6.35;;;-0.10;99.90;;;;;;5031563;28;20053;-72
2021/04/07 01:15:16;;;;;;;6.60;5.90;;;0.00;99.90;;;;;;5013596;28;20454;-73
2021/04/07 01:17:44;;;;;;;7.20;6.47;;;0.00;99.90;;;;;;5031503;28;20372;-73
2021/04/07 01:20:12;;;;;;;6.72;6.03;;;-0.10;99.90;;;;;;5032025;28;20034;-73
2021/04/07 01:22:39;;;;;;;6.78;5.85;;;-0.10;99.90;;;;;;5035223;28;20483;-72
2021/04/07 01:25:08;;;;;;;8.63;6.65;;;-0.10;99.90;;;;;;5017595;28;20484;-71
2021/04/07 01:27:35;;;;;;;6.57;5.93;;;-0.10;99.90;;;;;;5021339;28;20103;-72
2021/04/07 01:30:01;;;;;;;7.47;6.28;;;-0.10;99.90;;;;;;5017220;28;20025;-71
2021/04/07 01:32:26;;;;;;;7.53;6.40;;;0.00;99.90;;;;;;5042354;28;20042;-72
2021/04/07 01:34:52;;;;;;;9.90;7.07;;;0.00;99.90;;;;;;5028895;28;20120;-72
2021/04/07 01:37:17;;;;;;;6.13;5.47;;;-0.10;99.90;;;;;;5044348;28;20100;-72
2021/04/07 01:39:43;;;;;;;7.68;6.43;;;-0.10;99.90;;;;;;5046623;28;20032;-72
2021/04/07 01:42:09;;;;;;;7.50;6.18;;;-0.10;99.90;;;;;;5045177;28;20032;-72
2021/04/07 01:44:36;;;;;;;7.22;6.53;;;-0.10;99.90;;;;;;5027486;28;20021;-71
2021/04/07 01:47:04;;;;;;;6.68;6.05;;;-0.10;99.90;;;;;;5025802;28;20018;-72
2021/04/07 01:49:32;;;;;;;6.55;5.43;;;-0.10;99.90;;;;;;5021504;28;20105;-74
2021/04/07 01:51:57;;;;;;;6.75;5.97;;;-0.10;99.90;;;;;;5022056;28;20426;-72
2021/04/07 01:54:23;;;;;;;6.80;6.10;;;-0.10;99.90;;;;;;5048888;28;20036;-73
2021/04/07 01:56:54;;;;;;;6.80;6.15;;;-0.10;99.90;;;;;;5048759;28;20099;-73
2021/04/07 01:59:26;;;;;;;8.30;6.25;;;-0.10;99.90;;;;;;5026613;28;20033;-73
2021/04/07 02:01:53;;;;;;;6.90;6.20;;;-0.10;99.90;;;;;;5042495;28;20379;-72
2021/04/07 02:04:20;;;;;;;6.75;5.90;;;-0.20;99.90;;;;;;5044141;28;20432;-72
2021/04/07 02:06:47;;;;;;;7.20;5.93;;;-0.20;99.90;;;;;;5046231;28;20048;-71
2021/04/07 02:09:13;;;;;;;6.47;5.88;;;-0.20;99.90;;;;;;5046026;28;20021;-73
2021/04/07 02:11:42;;;;;;;6.65;5.95;;;-0.20;99.90;;;;;;5046028;28;20104;-72
2021/04/07 02:14:16;;;;;;;6.72;6.00;;;-0.20;99.90;;;;;;5044721;28;20025;-72
2021/04/07 02:16:47;;;;;;;7.70;6.25;;;-0.20;99.90;;;;;;5028305;28;20017;-73
2021/04/07 02:19:13;;;;;;;8.60;6.68;;;-0.20;99.90;;;;;;5043737;28;20095;-72
2021/04/07 02:21:38;;;;;;;9.60;6.18;;;-0.20;99.90;;;;;;5028059;28;20013;-72
2021/04/07 02:24:04;;;;;;;7.60;6.90;;;-0.20;99.90;;;;;;5043017;28;20033;-71
2021/04/07 02:26:31;;;;;;;7.28;6.57;;;-0.20;99.90;;;;;;5045666;28;20057;-71
2021/04/07 02:28:57;;;;;;;6.97;6.38;;;-0.20;99.90;;;;;;5045837;28;20017;-72
2021/04/07 02:31:23;;;;;;;7.70;6.90;;;-0.20;99.90;;;;;;5044090;28;20395;-73
2021/04/07 02:33:48;;;;;;;7.70;6.90;;;-0.20;99.90;;;;;;5028034;28;20025;-71
2021/04/07 02:36:14;;;;;;;7.72;6.93;;;-0.20;99.90;;;;;;5043319;28;20115;-72
2021/04/07 02:38:39;;;;;;;7.85;6.72;;;-0.20;99.90;;;;;;5028390;28;20030;-73
2021/04/07 02:41:05;;;;;;;7.22;6.47;;;-0.20;99.90;;;;;;5049346;28;20025;-71
2021/04/07 02:43:30;;;;;;;9.75;6.70;;;-0.30;99.90;;;;;;5041988;28;20099;-70
2021/04/07 02:45:58;;;;;;;7.65;6.95;;;-0.20;99.90;;;;;;5045498;28;20025;-71
2021/04/07 02:48:24;;;;;;;7.95;6.78;;;-0.30;99.90;;;;;;5044110;28;20499;-72
2021/04/07 02:50:49;;;;;;;7.78;6.97;;;-0.20;99.90;;;;;;5045526;28;20031;-72
2021/04/07 02:53:14;;;;;;;6.70;5.60;;;-0.30;99.90;;;;;;5025195;28;20029;-71
2021/04/07 02:55:40;;;;;;;10.25;6.32;;;-0.30;99.90;;;;;;5045337;28;20017;-72
2021/04/07 02:58:05;;;;;;;7.70;6.32;;;-0.30;99.90;;;;;;5044847;28;20026;-72
2021/04/07 03:00:31;;;;;;;7.25;6.55;;;-0.30;99.90;;;;;;5027978;28;20552;-71
2021/04/07 03:02:56;;;;;;;7.47;6.28;;;-0.30;99.90;;;;;;5027150;28;20013;-72
2021/04/07 03:05:22;;;;;;;6.95;5.70;;;-0.40;99.90;;;;;;5025976;28;20387;-71
2021/04/07 03:07:48;;;;;;;7.88;5.03;;;-0.30;99.90;;;;;;5044515;28;20079;-72
2021/04/07 03:10:13;;;;;;;9.90;5.22;;;-0.40;99.90;;;;;;5049109;28;20107;-71
2021/04/07 03:12:39;;;;;;;6.15;5.32;;;-0.40;99.90;;;;;;5023736;28;20078;-71
2021/04/07 03:15:09;;;;;;;8.30;5.80;;;-0.40;99.90;;;;;;5047220;28;20021;-71
2021/04/07 03:17:39;;;;;;;6.82;5.53;;;-0.40;99.90;;;;;;5042990;28;20593;-72
2021/04/07 03:20:08;;;;;;;6.55;5.45;;;-0.40;99.90;;;;;;5030743;28;20025;-72
2021/04/07 03:22:34;;;;;;;6.75;5.90;;;-0.40;99.90;;;;;;5042666;28;20552;-72
2021/04/07 03:25:00;;;;;;;9.52;5.28;;;-0.40;99.90;;;;;;5044654;28;20094;-72
2021/04/07 03:27:25;;;;;;;6.13;4.97;;;-0.40;99.90;;;;;;5024285;28;20082;-72
2021/04/07 03:29:52;;;;;;;7.10;5.22;;;-0.40;99.90;;;;;;5044673;28;20021;-72
2021/04/07 03:32:19;;;;;;;6.10;5.00;;;-0.50;99.90;;;;;;5043965;28;20080;-72
2021/04/07 03:34:44;;;;;;;7.38;5.47;;;-0.50;99.90;;;;;;5044400;28;20017;-72
2021/04/07 03:37:10;;;;;;;6.78;5.00;;;-0.50;99.90;;;;;;5025012;28;20013;-71
2021/04/07 03:39:35;;;;;;;7.85;6.15;;;-0.50;99.90;;;;;;5044603;28;20029;-72
2021/04/07 03:42:01;;;;;;;7.75;5.60;;;-0.50;99.90;;;;;;5042075;28;20021;-72
2021/04/07 03:44:27;;;;;;;7.57;5.97;;;-0.50;99.90;;;;;;5047435;28;20021;-72
2021/04/07 03:46:56;;;;;;;6.80;5.60;;;-0.50;99.90;;;;;;5040961;28;20100;-72
2021/04/07 03:49:21;;;;;;;7.35;6.55;;;-0.50;99.90;;;;;;5047505;28;20067;-71
2021/04/07 03:51:47;;;;;;;9.13;6.95;;;-0.50;99.90;;;;;;5018039;28;20054;-71
2021/04/07 03:54:13;;;;;;;7.38;6.68;;;-0.50;99.90;;;;;;5032443;28;20037;-72
2021/04/07 03:56:39;;;;;;;9.40;7.10;;;-0.50;99.90;;;;;;5032786;28;20029;-72
2021/04/07 03:59:05;;;;;;;10.30;7.63;;;-0.50;99.90;;;;;;5032506;28;20033;-71
2021/04/07 04:01:31;;;;;;;7.68;6.88;;;-0.50;99.90;;;;;;5032391;28;20071;-71
2021/04/07 04:03:56;;;;;;;10.38;6.93;;;-0.50;99.90;;;;;;5014498;28;20175;-71
2021/04/07 04:06:22;;;;;;;8.68;7.38;;;-0.50;99.90;;;;;;5032408;28;20025;-71
2021/04/07 04:08:47;;;;;;;14.55;7.45;;;-0.50;99.90;;;;;;5032405;28;20525;-71
2021/04/07 04:11:13;;;;;;;8.20;7.15;;;-0.50;99.90;;;;;;5032360;28;20087;-71
2021/04/07 04:13:38;;;;;;;16.88;7.47;;;-0.60;99.90;;;;;;5014714;28;20033;-71
2021/04/07 04:16:04;;;;;;;9.30;7.35;;;-0.60;99.90;;;;;;5032222;28;20026;-71
2021/04/07 04:18:29;;;;;;;8.63;6.95;;;-0.50;99.90;;;;;;5014403;28;20029;-71
2021/04/07 04:20:55;;;;;;;7.90;7.10;;;-0.50;99.90;;;;;;5032161;28;20029;-71
2021/04/07 04:23:20;;;;;;;8.70;6.90;;;-0.50;99.90;;;;;;5032039;28;20021;-71
2021/04/07 04:25:46;;;;;;;6.75;6.00;;;-0.60;99.90;;;;;;5014325;28;20431;-71
2021/04/07 04:28:12;;;;;;;9.55;6.60;;;-0.50;99.90;;;;;;5015247;28;20024;-71
2021/04/07 04:30:37;;;;;;;8.20;7.30;;;-0.50;99.90;;;;;;5032135;28;20033;-72
2021/04/07 04:33:03;;;;;;;9.25;7.03;;;-0.50;99.90;;;;;;5031997;28;20029;-72
2021/04/07 04:35:29;;;;;;;9.63;6.70;;;-0.50;99.90;;;;;;5031765;28;20033;-72
2021/04/07 04:37:54;;;;;;;7.00;6.30;;;-0.50;99.90;;;;;;5032025;28;20025;-71
2021/04/07 04:40:20;;;;;;;7.45;5.70;;;-0.50;99.90;;;;;;5013848;28;20057;-71
2021/04/07 04:42:47;;;;;;;8.23;6.80;;;-0.60;99.90;;;;;;5014077;28;20065;-72
2021/04/07 04:45:13;;;;;;;9.82;7.15;;;-0.60;99.90;;;;;;5031891;28;20075;-72
2021/04/07 04:47:39;;;;;;;9.27;7.32;;;-0.60;99.90;;;;;;5031923;28;20487;-72
2021/04/07 04:50:06;;;;;;;9.23;6.78;;;-0.60;99.90;;;;;;5031941;28;20057;-72
2021/04/07 04:52:32;;;;;;;8.65;7.40;;;-0.70;99.90;;;;;;5031787;28;20469;-71
2021/04/07 04:54:57;;;;;;;9.77;7.25;;;-0.70;99.90;;;;;;5013716;28;20045;-71
2021/04/07 04:57:23;;;;;;;9.05;7.57;;;-0.70;99.90;;;;;;5031725;28;20029;-71
2021/04/07 04:59:48;;;;;;;9.73;8.73;;;-0.70;99.90;;;;;;5014003;28;20057;-70
2021/04/07 05:02:14;;;;;;;10.15;8.75;;;-0.70;99.90;;;;;;5031591;28;20071;-70
2021/04/07 05:04:39;;;;;;;12.05;9.02;;;-0.70;99.90;;;;;;5031507;28;20021;-71
2021/04/07 05:07:05;;;;;;;9.85;8.85;;;-0.70;99.90;;;;;;5031742;28;20030;-71
2021/04/07 05:09:31;;;;;;;11.85;9.60;;;-0.70;99.90;;;;;;5013952;28;20026;-71
2021/04/07 05:11:57;;;;;;;10.95;9.25;;;-0.70;99.90;;;;;;5031399;28;20029;-71
2021/04/07 05:14:23;;;;;;;12.85;9.25;;;-0.70;99.90;;;;;;5031329;28;20091;-70
2021/04/07 05:16:48;;;;;;;12.85;8.98;;;-0.70;99.90;;;;;;5031362;28;20037;-70
2021/04/07 05:19:14;;;;;;;10.57;9.57;;;-0.70;99.90;;;;;;5031482;28;20025;-71
2021/04/07 05:21:39;;;;;;;10.60;9.30;;;-0.60;99.90;;;;;;5031452;28;20026;-71
2021/04/07 05:24:06;;;;;;;9.80;8.25;;;-0.60;99.90;;;;;;5031169;28;20053;-71
2021/04/07 05:26:34;;;;;;;12.70;8.90;;;-0.50;99.90;;;;;;5013715;28;20025;-71
2021/04/07 05:28:59;;;;;;;13.10;8.35;;;-0.50;99.90;;;;;;5031421;28;20045;-71
2021/04/07 05:31:25;;;;;;;11.70;9.68;;;-0.50;99.90;;;;;;5013656;28;20068;-71
2021/04/07 05:33:50;;;;;;;11.50;9.68;;;-0.60;99.90;;;;;;5031157;28;20038;-72
2021/04/07 05:36:16;;;;;;;11.15;9.00;;;-0.40;99.90;;;;;;5031424;28;20032;-70
2021/04/07 05:38:42;;;;;;;12.52;8.73;;;-0.40;99.90;;;;;;5031289;28;20546;-71
2021/04/07 05:41:08;;;;;;;9.77;8.77;;;-0.40;99.90;;;;;;5013687;28;20395;-71
2021/04/07 05:43:36;;;;;;;11.80;8.93;;;-0.40;99.90;;;;;;5035150;28;20021;-71
2021/04/07 05:46:02;;;;;;;14.20;7.97;;;-0.40;99.90;;;;;;5040214;28;20067;-71
2021/04/07 05:48:28;;;;;;;11.70;9.82;;;-0.40;99.90;;;;;;5014133;28;20044;-71
2021/04/07 05:50:54;;;;;;;12.95;9.80;;;-0.40;99.90;;;;;;5031229;28;20452;-71
2021/04/07 05:53:21;;;;;;;12.60;9.57;;;-0.40;99.90;;;;;;5013197;28;20120;-70
2021/04/07 05:55:48;;;;;;;10.77;8.45;;;-0.50;99.90;;;;;;5031053;28;20488;-70
2021/04/07 05:58:15;;;;;;;13.68;9.93;;;-0.50;99.90;;;;;;5013448;28;20028;-71
2021/04/07 06:00:41;;;;;;;11.60;9.68;;;-0.30;99.90;;;;;;5013370;28;20491;-71
2021/04/07 06:03:08;;;;;;;12.77;10.48;;;-0.50;99.90;;;;;;5013372;28;20034;-71
2021/04/07 06:05:38;;;;;;;12.43;10.10;;;-0.50;99.90;;;;;;5030939;28;20018;-71
2021/04/07 06:08:04;;;;;;;13.13;8.40;;;-0.50;99.90;;;;;;5034261;28;20041;-71
2021/04/07 06:10:31;;;;;;;13.60;9.15;;;-0.50;99.90;;;;;;5017061;28;20032;-70
2021/04/07 06:12:58;;;;;;;11.20;8.45;;;-0.50;99.90;;;;;;5016723;28;20025;-71
2021/04/07 06:15:24;;;;;;;12.23;9.52;;;-0.50;99.90;;;;;;5034396;28;20030;-71
2021/04/07 06:17:58;;;;;;;12.93;10.35;;;-0.50;99.90;;;;;;5034568;28;20479;-71
2021/04/07 06:20:25;;;;;;;11.00;8.55;;;-0.50;99.90;;;;;;5034436;28;20044;-71
2021/04/07 06:22:51;;;;;;;12.93;10.23;;;-0.40;99.90;;;;;;5034395;28;20022;-70
2021/04/07 06:25:17;;;;;;;13.55;10.45;;;-0.40;99.90;;;;;;5034093;28;20021;-71
2021/04/07 06:27:48;;;;;;;12.52;9.30;;;-0.40;99.90;;;;;;5034433;28;20026;-71
2021/04/07 06:30:14;;;;;;;12.52;8.93;;;-0.40;99.90;;;;;;5016403;28;20030;-71
2021/04/07 06:32:39;;;;;;;12.13;9.45;;;-0.40;99.90;;;;;;5034162;28;20029;-71
2021/04/07 06:35:06;;;;;;;15.98;9.98;;;-0.50;99.90;;;;;;5033884;28;20036;-70
2021/04/07 06:37:31;;;;;;;12.38;9.55;;;-0.40;99.90;;;;;;5034251;28;20025;-70
2021/04/07 06:39:57;;;;;;;12.82;8.10;;;-0.40;99.90;;;;;;5034042;28;20479;-71
2021/04/07 06:42:22;;;;;;;13.77;10.40;;;-0.40;99.90;;;;;;5034140;28;20021;-71
2021/04/07 06:44:48;;;;;;;11.90;8.63;;;-0.40;99.90;;;;;;5047248;28;20105;-70
2021/04/07 06:47:14;;;;;;;20.02;10.20;;;-0.40;99.90;;;;;;5016035;28;20119;-71
2021/04/07 06:49:42;;;;;;;13.25;10.35;;;-0.30;99.90;;;;;;5033958;28;20204;-71
2021/04/07 06:52:18;;;;;;;12.30;8.20;;;-0.40;99.90;;;;;;5033784;28;20033;-71
2021/04/07 06:54:45;;;;;;;14.73;10.52;;;-0.30;99.90;;;;;;5015700;28;20394;-71
2021/04/07 06:57:11;;;;;;;11.35;9.73;;;-0.20;99.90;;;;;;5033825;28;20096;-71
2021/04/07 06:59:37;;;;;;;12.43;7.85;;;-0.20;99.90;;;;;;5033808;28;20484;-72
2021/04/07 07:02:04;;;;;;;10.95;8.00;;;-0.20;99.90;;;;;;5016094;28;20387;-71
2021/04/07 07:04:29;;;;;;;12.82;9.93;;;-0.10;99.90;;;;;;5033399;28;20021;-71
2021/04/07 07:06:56;;;;;;;13.77;9.95;;;0.00;99.90;;;;;;5033311;28;20236;-71
2021/04/07 07:09:22;;;;;;;10.98;8.27;;;0.10;99.90;;;;;;5033390;28;20444;-71
2021/04/07 07:11:49;;;;;;;13.02;8.70;;;0.10;99.90;;;;;;5033425;28;20109;-71
2021/04/07 07:14:16;;;;;;;11.15;8.85;;;0.10;99.90;;;;;;5015375;28;20030;-71
2021/04/07 07:16:49;;;;;;;10.73;8.55;;;0.20;99.90;;;;;;5033352;28;20024;-71
2021/04/07 07:19:25;;;;;;;10.27;7.93;;;0.20;99.90;;;;;;5033249;28;20026;-71
2021/04/07 07:22:02;;;;;;;11.85;8.43;;;0.60;99.90;;;;;;5033370;28;20033;-71
2021/04/07 07:24:30;;;;;;;11.23;7.35;;;0.70;99.90;;;;;;5015273;28;20105;-71
2021/04/07 07:26:56;;;;;;;10.75;6.78;;;0.90;99.90;;;;;;5015378;28;20029;-71
2021/04/07 07:29:26;;;;;;;10.05;7.30;;;1.00;99.90;;;;;;5033082;28;20381;-71
2021/04/07 07:32:06;;;;;;;10.82;6.18;;;0.90;99.90;;;;;;5032716;28;20052;-71
2021/04/07 07:34:33;;;;;;;9.07;6.63;;;0.90;99.90;;;;;;5032929;28;20030;-71
2021/04/07 07:37:01;;;;;;;11.23;7.07;;;0.90;99.90;;;;;;5032987;28;20508;-71
2021/04/07 07:39:30;;;;;;;8.40;7.07;;;1.10;99.90;;;;;;5032903;28;20113;-71
2021/04/07 07:42:09;;;;;;;10.45;7.43;;;1.10;99.90;;;;;;5032791;28;20029;-71
2021/04/07 07:44:37;;;;;;;9.23;6.57;;;1.10;99.90;;;;;;5045175;28;20049;-71
2021/04/07 07:47:21;;;;;;;8.55;6.55;;;0.90;99.90;;;;;;5033170;28;20033;-71
2021/04/07 07:50:02;;;;;;;8.50;6.82;;;0.80;99.90;;;;;;5032797;28;20060;-73
2021/04/07 07:52:36;;;;;;;10.85;6.57;;;0.90;99.90;;;;;;5014978;28;20022;-72
2021/04/07 07:55:18;;;;;;;7.85;6.47;;;0.90;99.90;;;;;;5032517;28;20044;-71
2021/04/07 07:57:57;;;;;;;10.48;6.70;;;1.00;99.90;;;;;;5032429;28;20047;-70
2021/04/07 08:00:24;;;;;;;8.68;6.15;;;0.90;99.90;;;;;;5014654;28;20061;-71
2021/04/07 08:02:50;;;;;;;8.75;6.20;;;0.90;99.90;;;;;;5032232;28;20030;-70
2021/04/07 08:05:17;;;;;;;8.98;5.45;;;1.00;99.90;;;;;;5032343;28;20048;-71
2021/04/07 08:07:43;;;;;;;10.50;6.20;;;1.10;99.90;;;;;;5014875;28;20028;-70
2021/04/07 08:10:10;;;;;;;9.20;5.75;;;1.20;99.90;;;;;;5032433;28;20029;-70
2021/04/07 08:12:37;;;;;;;8.27;5.32;;;1.40;99.90;;;;;;5032163;28;20021;-71
2021/04/07 08:15:05;;;;;;;8.38;5.63;;;1.40;99.90;;;;;;5032093;28;20403;-70
2021/04/07 08:17:31;;;;;;;11.52;6.00;;;1.10;99.90;;;;;;5032135;28;20159;-71
2021/04/07 08:20:00;;;;;;;7.93;5.75;;;1.30;99.90;;;;;;5032341;28;20111;-70
2021/04/07 08:22:28;;;;;;;7.20;5.60;;;1.40;99.90;;;;;;5032052;28;20036;-70
2021/04/07 08:24:55;;;;;;;11.00;6.38;;;1.50;99.90;;;;;;5014296;28;20033;-70
2021/04/07 08:27:21;;;;;;;8.32;5.85;;;1.70;99.90;;;;;;5032470;28;20042;-70
2021/04/07 08:29:47;;;;;;;9.00;5.68;;;1.60;99.90;;;;;;5031492;28;20498;-70
2021/04/07 08:32:17;;;;;;;11.15;5.55;;;1.40;99.90;;;;;;5031946;28;20434;-71
2021/04/07 08:34:44;;;;;;;9.25;5.50;;;1.40;99.90;;;;;;5031822;28;20026;-71
2021/04/07 08:37:10;;;;;;;7.82;5.70;;;1.30;99.90;;;;;;5031834;28;20025;-70
2021/04/07 08:39:43;;;;;;;9.70;5.80;;;1.40;99.90;;;;;;5032940;28;20445;-71
2021/04/07 08:42:11;;;;;;;9.27;5.85;;;1.30;99.90;;;;;;5032758;28;20471;-71
2021/04/07 08:44:46;;;;;;;8.82;5.50;;;1.40;99.90;;;;;;5014115;28;20026;-70
2021/04/07 08:47:28;;;;;;;7.70;5.78;;;1.40;99.90;;;;;;5031692;28;20060;-71
2021/04/07 08:50:05;;;;;;;8.80;6.20;;;1.50;99.90;;;;;;5031856;28;20025;-70
2021/04/07 08:52:30;;;;;;;8.93;5.47;;;1.80;99.90;;;;;;5031477;28;20120;-70
2021/04/07 08:54:59;;;;;;;10.30;6.63;;;1.90;99.90;;;;;;5031348;28;20534;-70
2021/04/07 08:57:33;;;;;;;8.90;6.53;;;1.90;99.90;;;;;;5013958;28;20030;-70
2021/04/07 09:00:19;;;;;;;8.82;6.53;;;1.50;99.90;;;;;;5013956;28;20559;-71
2021/04/07 09:02:53;;;;;;;10.32;7.20;;;1.30;99.90;;;;;;5013930;28;20021;-70
2021/04/07 09:05:37;;;;;;;10.07;7.28;;;1.10;99.90;;;;;;5031379;28;20053;-70
2021/04/07 09:08:03;;;;;;;11.27;6.80;;;1.10;99.90;;;;;;5031661;28;20025;-70
2021/04/07 09:10:46;;;;;;;9.98;7.55;;;1.10;99.90;;;;;;5031507;28;20499;-70
2021/04/07 09:13:22;;;;;;;11.88;7.50;;;1.30;99.90;;;;;;5031484;28;20064;-70
2021/04/07 09:16:03;;;;;;;14.10;7.97;;;1.40;99.90;;;;;;5031349;28;20545;-70
2021/04/07 09:18:37;;;;;;;10.63;7.20;;;1.60;99.90;;;;;;5031456;28;20399;-70
2021/04/07 09:21:16;;;;;;;7.07;6.38;;;1.80;99.90;;;;;;5031389;28;20510;-70
2021/04/07 09:23:48;;;;;;;7.78;6.15;;;2.20;99.90;;;;;;5013408;28;20030;-72
2021/04/07 09:26:17;;;;;;;6.28;5.32;;;2.40;99.90;;;;;;5013645;28;20030;-72
2021/04/07 09:28:45;;;;;;;6.47;5.15;;;2.40;99.90;;;;;;5031280;28;20021;-72
2021/04/07 09:31:11;;;;;;;5.90;4.65;;;2.30;99.90;;;;;;5031360;28;20021;-70
2021/04/07 09:33:39;;;;;;;6.78;3.97;;;1.90;99.90;;;;;;5031007;28;20440;-70
2021/04/07 09:36:05;;;;;;;5.10;4.03;;;1.90;99.90;;;;;;5031170;28;20021;-72
2021/04/07 09:38:31;;;;;;;7.05;4.10;;;1.80;99.90;;;;;;5030988;28;20063;-70
2021/04/07 09:41:10;;;;;;;7.22;4.78;;;1.80;99.90;;;;;;5013745;28;19913;-70
2021/04/07 09:43:37;;;;;;;5.75;4.68;;;1.80;99.90;;;;;;5039370;28;20021;-72
2021/04/07 09:46:03;;;;;;;5.00;4.25;;;2.10;99.90;;;;;;5043697;28;20029;-72
2021/04/07 09:49:03;;;;;;;7.22;5.38;;;2.10;99.90;;;;;;5035030;28;20032;-70
2021/04/07 09:51:42;;;;;;;7.25;5.32;;;2.10;99.90;;;;;;5017014;28;20491;-72
2021/04/07 09:54:22;;;;;;;6.97;5.55;;;2.20;99.90;;;;;;5034586;28;20033;-72
2021/04/07 09:56:55;;;;;;;9.43;5.97;;;2.20;99.90;;;;;;5040146;28;20020;-72
2021/04/07 09:59:43;;;;;;;8.27;5.78;;;2.30;99.90;;;;;;5044012;28;20470;-69
2021/04/07 10:02:14;;;;;;;10.60;5.78;;;2.10;99.90;;;;;;5048681;28;20386;-69
2021/04/07 10:04:42;;;;;;;10.02;6.13;;;2.20;99.90;;;;;;5026559;28;20421;-72
2021/04/07 10:07:19;;;;;;;8.90;5.68;;;2.40;99.90;;;;;;5047984;28;20356;-70
2021/04/07 10:09:50;;;;;;;8.00;5.20;;;2.30;99.90;;;;;;5028577;28;20386;-70
2021/04/07 10:12:18;;;;;;;8.98;5.55;;;2.00;99.90;;;;;;5044691;28;20036;-70
2021/04/07 10:14:55;;;;;;;7.43;5.10;;;2.00;99.90;;;;;;5023004;28;20112;-70
2021/04/07 10:17:26;;;;;;;7.40;4.82;;;2.00;99.90;;;;;;5046172;28;20021;-70
2021/04/07 10:19:52;;;;;;;6.70;4.70;;;1.90;99.90;;;;;;5046125;28;20029;-70
2021/04/07 10:22:26;;;;;;;6.32;4.75;;;2.00;99.90;;;;;;5044856;28;20104;-70
2021/04/07 10:24:56;;;;;;;8.75;5.50;;;2.00;99.90;;;;;;5045760;28;20040;-70
2021/04/07 10:27:24;;;;;;;10.07;4.30;;;2.30;99.90;;;;;;5043963;28;20024;-70
2021/04/07 10:30:05;;;;;;;10.10;5.03;;;2.20;99.90;;;;;;5045785;28;20522;-70
2021/04/07 10:32:37;;;;;;;9.55;5.20;;;2.30;99.90;;;;;;5024926;28;20370;-70
2021/04/07 10:35:03;;;;;;;7.53;4.22;;;2.30;99.90;;;;;;5027406;28;20159;-69
2021/04/07 10:37:28;;;;;;;6.60;4.60;;;2.20;99.90;;;;;;5027532;28;20017;-72
2021/04/07 10:39:54;;;;;;;7.65;4.40;;;2.20;99.90;;;;;;5027525;28;20036;-73
2021/04/07 10:42:20;;;;;;;8.05;4.32;;;2.30;99.90;;;;;;5043779;28;20032;-70
2021/04/07 10:45:00;;;;;;;6.45;4.40;;;2.20;99.90;;;;;;5048018;28;20029;-70
2021/04/07 10:47:26;;;;;;;5.20;3.45;;;2.00;99.90;;;;;;5044681;28;20595;-73
2021/04/07 10:49:53;;;;;;;7.43;4.32;;;1.90;99.90;;;;;;5028096;28;20037;-70
2021/04/07 10:52:32;;;;;;;8.10;4.80;;;1.70;99.90;;;;;;5028590;28;20036;-70
2021/04/07 10:54:59;;;;;;;7.35;4.85;;;1.00;99.90;;;;;;5032769;28;20033;-72
2021/04/07 10:57:33;;;;;;;8.57;5.30;;;1.00;99.90;;;;;;5019159;28;20057;-70
2021/04/07 10:59:59;;;;;;;10.88;5.30;;;1.10;99.90;;;;;;5032381;28;20434;-73
2021/04/07 11:02:25;;;;;;;8.40;5.07;;;1.10;99.90;;;;;;5032385;28;20025;-69
2021/04/07 11:04:51;;;;;;;8.90;5.18;;;1.20;99.90;;;;;;5018270;28;20017;-69
2021/04/07 11:07:17;;;;;;;7.57;5.28;;;1.10;99.90;;;;;;5025250;28;20025;-72
2021/04/07 11:09:52;;;;;;;7.05;5.25;;;1.10;99.90;;;;;;5033281;28;20032;-72
2021/04/07 11:12:21;;;;;;;8.85;5.28;;;1.20;99.90;;;;;;5031049;28;20025;-73
2021/04/07 11:14:53;;;;;;;8.50;5.25;;;1.20;99.90;;;;;;5040416;28;20419;-72
2021/04/07 11:17:19;;;;;;;7.80;5.07;;;1.20;99.90;;;;;;5044624;28;20028;-72
2021/04/07 11:19:46;;;;;;;8.52;5.88;;;1.20;99.90;;;;;;5026219;28;20027;-72
2021/04/07 11:22:12;;;;;;;6.65;5.20;;;1.20;99.90;;;;;;5043826;28;20025;-70
2021/04/07 11:24:37;;;;;;;7.53;5.53;;;1.10;99.90;;;;;;5044482;28;20486;-70
2021/04/07 11:27:06;;;;;;;5.65;5.03;;;1.20;99.90;;;;;;5042888;28;20086;-70
2021/04/07 11:29:31;;;;;;;5.97;5.38;;;1.10;99.90;;;;;;5031533;28;20028;-70
2021/04/07 11:31:59;;;;;;;8.52;5.93;;;1.10;99.90;;;;;;5045736;28;20022;-70
2021/04/07 11:34:35;;;;;;;6.25;4.85;;;1.20;99.90;;;;;;5043488;28;20491;-70
2021/04/07 11:46:45;;;;;;;8.25;5.03;;;1.40;99.90;;;;;;5041090;28;20083;-69
2021/04/07 11:49:11;;;;;;;6.55;5.35;;;1.60;99.90;;;;;;5047837;28;20031;-70
2021/04/07 11:51:39;;;;;;;6.30;5.65;;;1.60;99.90;;;;;;5037631;28;20548;-70
2021/04/07 11:54:06;;;;;;;6.32;5.40;;;1.50;99.90;;;;;;5046239;28;20033;-70
2021/04/07 11:56:32;;;;;;;6.75;5.85;;;1.60;99.90;;;;;;5023557;28;20082;-70
2021/04/07 11:58:58;;;;;;;6.43;5.55;;;1.70;99.90;;;;;;5044061;28;20025;-70
2021/04/07 12:01:24;;;;;;;6.22;5.63;;;1.80;99.90;;;;;;5042294;28;20025;-71
2021/04/07 12:03:50;;;;;;;6.10;5.50;;;1.80;99.90;;;;;;5025570;28;20116;-71
2021/04/07 12:06:15;;;;;;;9.82;6.28;;;1.70;99.90;;;;;;5041091;28;20051;-72
2021/04/07 12:08:41;;;;;;;6.50;5.88;;;1.70;99.90;;;;;;5026280;28;20017;-72
2021/04/07 12:11:06;;;;;;;6.70;5.82;;;1.90;99.90;;;;;;5043267;28;20020;-71
2021/04/07 12:13:32;;;;;;;7.57;6.65;;;1.90;99.90;;;;;;5014437;28;20045;-71
2021/04/07 12:15:57;;;;;;;9.27;7.00;;;2.00;99.90;;;;;;5032437;28;20022;-71
2021/04/07 12:18:23;;;;;;;8.43;6.75;;;2.20;99.90;;;;;;5032333;28;20025;-71
2021/04/07 12:20:50;;;;;;;7.55;6.15;;;2.50;99.90;;;;;;5031061;28;20419;-71
2021/04/07 12:23:15;;;;;;;8.98;7.05;;;2.30;99.90;;;;;;5031769;28;20475;-72
2021/04/07 12:25:43;;;;;;;8.13;6.70;;;2.00;99.90;;;;;;5031870;28;20071;-72
2021/04/07 12:28:09;;;;;;;7.75;6.95;;;1.80;99.90;;;;;;5014261;28;20044;-71
2021/04/07 12:30:47;;;;;;;7.85;6.20;;;1.70;99.90;;;;;;5014146;28;20056;-71
2021/04/07 12:33:19;;;;;;;9.98;8.10;;;1.70;99.90;;;;;;5031951;28;20427;-72
2021/04/07 12:35:45;;;;;;;9.10;8.20;;;1.50;99.90;;;;;;5031549;28;20112;-71
2021/04/07 12:38:10;;;;;;;9.40;8.50;;;1.70;99.90;;;;;;5031939;28;20510;-72
2021/04/07 12:40:37;;;;;;;12.82;9.45;;;1.70;99.90;;;;;;5031662;28;20033;-72
2021/04/07 12:43:02;;;;;;;10.32;8.52;;;1.60;99.90;;;;;;5031764;28;20021;-71
2021/04/07 12:45:29;;;;;;;10.23;8.65;;;1.70;99.90;;;;;;5027198;28;20113;-71
2021/04/07 12:47:54;;;;;;;9.55;8.57;;;1.80;99.90;;;;;;5013892;28;20025;-71
2021/04/07 12:50:20;;;;;;;9.00;8.10;;;1.70;99.90;;;;;;5031597;28;20502;-72
2021/04/07 12:52:45;;;;;;;9.65;8.70;;;1.60;99.90;;;;;;5031562;28;20033;-71
2021/04/07 12:55:11;;;;;;;9.48;8.48;;;1.60;99.90;;;;;;5031396;28;20045;-71
2021/04/07 12:57:37;;;;;;;10.82;8.98;;;1.70;99.90;;;;;;5031592;28;20038;-72
2021/04/07 13:00:04;;;;;;;9.45;8.50;;;1.70;99.90;;;;;;5031534;28;20048;-72
2021/04/07 13:02:30;;;;;;;10.63;9.25;;;1.70;99.90;;;;;;5031840;28;20032;-72